createdAt,value
2023-04-14T00:00:02.211Z,985.85
2023-04-14T00:00:11.284Z,985.85
2023-04-14T00:00:21.776Z,985.86
2023-04-14T00:00:32.282Z,985.86
2023-04-14T00:00:42.792Z,985.86
2023-04-14T00:00:53.425Z,985.86
2023-04-14T00:01:03.808Z,985.86
2023-04-14T00:01:14.312Z,985.87
2023-04-14T00:01:24.818Z,985.86
2023-04-14T00:01:35.335Z,985.87
2023-04-14T00:01:45.890Z,985.87
2023-04-14T00:01:56.430Z,985.87
2023-04-14T00:02:06.927Z,985.87
2023-04-14T00:02:17.448Z,985.88
2023-04-14T00:02:27.967Z,985.88
2023-04-14T00:02:38.509Z,985.88
2023-04-14T00:02:49.183Z,985.88
2023-04-14T00:02:59.508Z,985.88
2023-04-14T00:03:10.171Z,985.88
2023-04-14T00:03:20.566Z,985.89
2023-04-14T00:03:31.078Z,985.89
2023-04-14T00:03:41.563Z,985.89
2023-04-14T00:03:52.026Z,985.89
2023-04-14T00:04:02.609Z,985.90
2023-04-14T00:04:13.187Z,985.89
2023-04-14T00:04:23.687Z,985.90
2023-04-14T00:04:34.260Z,985.90
2023-04-14T00:04:44.635Z,985.90
2023-04-14T00:04:55.096Z,985.90
2023-04-14T00:05:05.545Z,985.90
2023-04-14T00:05:16.170Z,985.90
2023-04-14T00:05:26.510Z,985.91
2023-04-14T00:05:37.017Z,985.91
2023-04-14T00:05:47.544Z,985.91
2023-04-14T00:05:58.040Z,985.91
2023-04-14T00:06:08.542Z,985.91
2023-04-14T00:06:19.050Z,985.91
2023-04-14T00:06:29.560Z,985.91
2023-04-14T00:06:40.071Z,985.91
2023-04-14T00:06:50.584Z,985.92
2023-04-14T00:07:01.080Z,985.92
2023-04-14T00:07:11.597Z,985.93
2023-04-14T00:07:22.100Z,985.92
2023-04-14T00:07:32.632Z,985.93
2023-04-14T00:07:43.120Z,985.93
2023-04-14T00:07:53.626Z,985.93
2023-04-14T00:08:04.139Z,985.94
2023-04-14T00:08:14.673Z,985.94
2023-04-14T00:08:25.154Z,985.94
2023-04-14T00:08:35.680Z,985.94
2023-04-14T00:08:46.182Z,985.95
2023-04-14T00:08:56.684Z,985.95
2023-04-14T00:09:07.197Z,985.95
2023-04-14T00:09:17.735Z,985.96
2023-04-14T00:09:28.216Z,985.96
2023-04-14T00:09:38.727Z,985.96
2023-04-14T00:09:49.236Z,985.96
2023-04-14T00:09:59.752Z,985.96
2023-04-14T00:10:10.256Z,985.97
2023-04-14T00:10:20.793Z,985.97
2023-04-14T00:10:31.286Z,985.97
2023-04-14T00:10:41.797Z,985.97
2023-04-14T00:10:52.306Z,985.97
2023-04-14T00:11:02.835Z,985.97
2023-04-14T00:11:13.321Z,985.97
2023-04-14T00:11:23.844Z,985.97
2023-04-14T00:11:34.347Z,985.97
2023-04-14T00:11:44.857Z,985.97
2023-04-14T00:11:55.367Z,985.97
2023-04-14T00:12:05.886Z,985.97
2023-04-14T00:12:16.414Z,985.97
2023-04-14T00:12:26.904Z,985.97
2023-04-14T00:12:37.443Z,985.97
2023-04-14T00:12:47.919Z,985.97
2023-04-14T00:12:58.438Z,985.97
2023-04-14T00:13:08.936Z,985.98
2023-04-14T00:13:19.448Z,985.98
2023-04-14T00:13:29.959Z,985.98
2023-04-14T00:13:40.556Z,985.97
2023-04-14T00:13:50.988Z,985.98
2023-04-14T00:14:01.486Z,985.97
2023-04-14T00:14:12.025Z,985.97
2023-04-14T00:14:22.517Z,985.97
2023-04-14T00:14:33.017Z,985.97
2023-04-14T00:14:43.692Z,985.97
2023-04-14T00:14:54.052Z,985.97
2023-04-14T00:15:04.546Z,985.96
2023-04-14T00:15:15.055Z,985.97
2023-04-14T00:15:25.564Z,985.96
2023-04-14T00:15:36.067Z,985.96
2023-04-14T00:15:46.574Z,985.96
2023-04-14T00:15:57.090Z,985.96
2023-04-14T00:16:07.603Z,985.96
2023-04-14T00:16:18.201Z,985.96
2023-04-14T00:16:28.630Z,985.96
2023-04-14T00:16:39.161Z,985.97
2023-04-14T00:16:49.698Z,985.96
2023-04-14T00:17:00.172Z,985.96
2023-04-14T00:17:10.786Z,985.96
2023-04-14T00:17:21.159Z,985.96
2023-04-14T00:17:31.699Z,985.96
2023-04-14T00:17:42.266Z,985.97
2023-04-14T00:17:52.693Z,985.97
2023-04-14T00:18:03.241Z,985.97
2023-04-14T00:18:13.702Z,985.97
2023-04-14T00:18:24.224Z,985.97
2023-04-14T00:18:34.714Z,985.97
2023-04-14T00:18:45.238Z,985.97
2023-04-14T00:18:55.744Z,985.97
2023-04-14T00:19:06.251Z,985.97
2023-04-14T00:19:16.752Z,985.97
2023-04-14T00:19:27.266Z,985.96
2023-04-14T00:19:37.762Z,985.96
2023-04-14T00:19:48.304Z,985.97
2023-04-14T00:19:58.790Z,985.97
2023-04-14T00:20:09.303Z,985.96
2023-04-14T00:20:19.822Z,985.96
2023-04-14T00:20:30.319Z,985.96
2023-04-14T00:20:40.840Z,985.96
2023-04-14T00:20:51.334Z,985.96
2023-04-14T00:21:01.857Z,985.96
2023-04-14T00:21:12.369Z,985.95
2023-04-14T00:21:22.878Z,985.95
2023-04-14T00:21:33.377Z,985.95
2023-04-14T00:21:43.918Z,985.95
2023-04-14T00:21:54.385Z,985.95
2023-04-14T00:22:04.907Z,985.94
2023-04-14T00:22:15.408Z,985.94
2023-04-14T00:22:25.910Z,985.94
2023-04-14T00:22:36.437Z,985.94
2023-04-14T00:22:46.928Z,985.94
2023-04-14T00:22:57.444Z,985.94
2023-04-14T00:23:07.947Z,985.95
2023-04-14T00:23:18.458Z,985.94
2023-04-14T00:23:28.977Z,985.94
2023-04-14T00:23:39.471Z,985.94
2023-04-14T00:23:49.969Z,985.95
2023-04-14T00:24:00.492Z,985.95
2023-04-14T00:24:10.993Z,985.95
2023-04-14T00:24:21.516Z,985.95
2023-04-14T00:24:32.017Z,985.95
2023-04-14T00:24:42.530Z,985.95
2023-04-14T00:24:53.037Z,985.96
2023-04-14T00:25:03.555Z,985.96
2023-04-14T00:25:14.062Z,985.96
2023-04-14T00:25:24.569Z,985.96
2023-04-14T00:25:35.076Z,985.96
2023-04-14T00:25:45.581Z,985.96
2023-04-14T00:25:56.093Z,985.97
2023-04-14T00:26:06.610Z,985.97
2023-04-14T00:26:17.112Z,985.97
2023-04-14T00:26:27.622Z,985.97
2023-04-14T00:26:38.127Z,985.97
2023-04-14T00:26:48.666Z,985.97
2023-04-14T00:26:59.158Z,985.97
2023-04-14T00:27:09.658Z,985.97
2023-04-14T00:27:20.174Z,985.97
2023-04-14T00:27:30.683Z,985.97
2023-04-14T00:27:41.180Z,985.97
2023-04-14T00:27:51.695Z,985.96
2023-04-14T00:28:02.193Z,985.96
2023-04-14T00:28:12.701Z,985.96
2023-04-14T00:28:23.213Z,985.96
2023-04-14T00:28:33.745Z,985.96
2023-04-14T00:28:44.230Z,985.96
2023-04-14T00:28:54.739Z,985.96
2023-04-14T00:29:05.258Z,985.96
2023-04-14T00:29:15.764Z,985.96
2023-04-14T00:29:26.278Z,985.96
2023-04-14T00:29:36.809Z,985.96
2023-04-14T00:29:47.299Z,985.96
2023-04-14T00:29:57.810Z,985.96
2023-04-14T00:30:08.316Z,985.96
2023-04-14T00:30:18.831Z,985.96
2023-04-14T00:30:29.348Z,985.95
2023-04-14T00:30:39.853Z,985.95
2023-04-14T00:30:50.384Z,985.95
2023-04-14T00:31:00.963Z,985.95
2023-04-14T00:31:11.452Z,985.95
2023-04-14T00:31:21.956Z,985.95
2023-04-14T00:31:32.554Z,985.95
2023-04-14T00:31:42.950Z,985.95
2023-04-14T00:31:53.431Z,985.95
2023-04-14T00:32:03.932Z,985.95
2023-04-14T00:32:14.471Z,985.95
2023-04-14T00:32:24.992Z,985.95
2023-04-14T00:32:35.538Z,985.95
2023-04-14T00:32:46.018Z,985.96
2023-04-14T00:32:56.503Z,985.96
2023-04-14T00:33:06.989Z,985.96
2023-04-14T00:33:17.496Z,985.96
2023-04-14T00:33:28.024Z,985.96
2023-04-14T00:33:38.533Z,985.96
2023-04-14T00:33:49.037Z,985.96
2023-04-14T00:33:59.520Z,985.96
2023-04-14T00:34:10.020Z,985.97
2023-04-14T00:34:20.546Z,985.97
2023-04-14T00:34:31.036Z,985.97
2023-04-14T00:34:41.550Z,985.97
2023-04-14T00:34:52.055Z,985.97
2023-04-14T00:35:02.569Z,985.97
2023-04-14T00:35:13.077Z,985.97
2023-04-14T00:35:23.580Z,985.97
2023-04-14T00:35:34.093Z,985.97
2023-04-14T00:35:44.609Z,985.97
2023-04-14T00:35:55.118Z,985.97
2023-04-14T00:36:05.622Z,985.96
2023-04-14T00:36:16.135Z,985.97
2023-04-14T00:36:26.634Z,985.96
2023-04-14T00:36:37.147Z,985.96
2023-04-14T00:36:47.663Z,985.96
2023-04-14T00:36:58.169Z,985.96
2023-04-14T00:37:08.666Z,985.96
2023-04-14T00:37:19.186Z,985.96
2023-04-14T00:37:29.695Z,985.96
2023-04-14T00:37:40.198Z,985.96
2023-04-14T00:37:50.710Z,985.96
2023-04-14T00:38:01.215Z,985.96
2023-04-14T00:38:11.732Z,985.95
2023-04-14T00:38:22.238Z,985.95
2023-04-14T00:38:32.773Z,985.95
2023-04-14T00:38:43.283Z,985.95
2023-04-14T00:38:53.760Z,985.95
2023-04-14T00:39:04.270Z,985.95
2023-04-14T00:39:14.776Z,985.94
2023-04-14T00:39:25.305Z,985.94
2023-04-14T00:39:35.800Z,985.94
2023-04-14T00:39:46.327Z,985.94
2023-04-14T00:39:56.816Z,985.94
2023-04-14T00:40:07.335Z,985.94
2023-04-14T00:40:17.833Z,985.94
2023-04-14T00:40:28.339Z,985.94
2023-04-14T00:40:38.858Z,985.94
2023-04-14T00:40:49.373Z,985.94
2023-04-14T00:40:59.865Z,985.94
2023-04-14T00:41:10.373Z,985.93
2023-04-14T00:41:20.897Z,985.94
2023-04-14T00:41:31.390Z,985.93
2023-04-14T00:41:41.894Z,985.93
2023-04-14T00:41:52.412Z,985.93
2023-04-14T00:42:02.919Z,985.93
2023-04-14T00:42:13.434Z,985.93
2023-04-14T00:42:23.937Z,985.92
2023-04-14T00:42:34.445Z,985.92
2023-04-14T00:42:44.948Z,985.92
2023-04-14T00:42:55.461Z,985.92
2023-04-14T00:43:05.986Z,985.92
2023-04-14T00:43:16.475Z,985.92
2023-04-14T00:43:27.039Z,985.92
2023-04-14T00:43:37.513Z,985.91
2023-04-14T00:43:48.016Z,985.91
2023-04-14T00:43:58.510Z,985.91
2023-04-14T00:44:09.012Z,985.91
2023-04-14T00:44:19.529Z,985.91
2023-04-14T00:44:30.033Z,985.91
2023-04-14T00:44:40.636Z,985.91
2023-04-14T00:44:51.044Z,985.91
2023-04-14T00:45:01.564Z,985.91
2023-04-14T00:45:12.072Z,985.90
2023-04-14T00:45:22.578Z,985.91
2023-04-14T00:45:33.082Z,985.90
2023-04-14T00:45:43.592Z,985.91
2023-04-14T00:45:54.152Z,985.91
2023-04-14T00:46:04.630Z,985.90
2023-04-14T00:46:15.208Z,985.90
2023-04-14T00:46:25.696Z,985.90
2023-04-14T00:46:36.156Z,985.90
2023-04-14T00:46:46.681Z,985.90
2023-04-14T00:46:57.167Z,985.90
2023-04-14T00:47:07.674Z,985.90
2023-04-14T00:47:18.216Z,985.90
2023-04-14T00:47:28.736Z,985.90
2023-04-14T00:47:39.312Z,985.90
2023-04-14T00:47:49.770Z,985.90
2023-04-14T00:48:00.279Z,985.90
2023-04-14T00:48:10.728Z,985.90
2023-04-14T00:48:21.244Z,985.90
2023-04-14T00:48:31.741Z,985.90
2023-04-14T00:48:42.264Z,985.91
2023-04-14T00:48:52.759Z,985.90
2023-04-14T00:49:03.597Z,985.90
2023-04-14T00:49:13.781Z,985.90
2023-04-14T00:49:24.301Z,985.90
2023-04-14T00:49:34.810Z,985.90
2023-04-14T00:49:45.309Z,985.90
2023-04-14T00:49:55.819Z,985.90
2023-04-14T00:50:06.336Z,985.90
2023-04-14T00:50:16.854Z,985.90
2023-04-14T00:50:27.359Z,985.90
2023-04-14T00:50:37.853Z,985.90
2023-04-14T00:50:48.404Z,985.90
2023-04-14T00:50:58.866Z,985.90
2023-04-14T00:51:09.375Z,985.90
2023-04-14T00:51:19.881Z,985.90
2023-04-14T00:51:30.398Z,985.90
2023-04-14T00:51:40.910Z,985.90
2023-04-14T00:51:51.410Z,985.90
2023-04-14T00:52:01.936Z,985.90
2023-04-14T00:52:12.431Z,985.90
2023-04-14T00:52:22.936Z,985.91
2023-04-14T00:52:33.439Z,985.91
2023-04-14T00:52:43.951Z,985.91
2023-04-14T00:52:54.465Z,985.91
2023-04-14T00:53:04.961Z,985.91
2023-04-14T00:53:15.479Z,985.91
2023-04-14T00:53:25.978Z,985.91
2023-04-14T00:53:36.554Z,985.92
2023-04-14T00:53:46.993Z,985.91
2023-04-14T00:53:57.513Z,985.92
2023-04-14T00:54:08.008Z,985.92
2023-04-14T00:54:18.532Z,985.92
2023-04-14T00:54:29.078Z,985.92
2023-04-14T00:54:39.541Z,985.92
2023-04-14T00:54:50.050Z,985.92
2023-04-14T00:55:00.555Z,985.92
2023-04-14T00:55:11.072Z,985.92
2023-04-14T00:55:21.602Z,985.92
2023-04-14T00:55:32.085Z,985.92
2023-04-14T00:55:42.601Z,985.93
2023-04-14T00:55:53.096Z,985.93
2023-04-14T00:56:03.608Z,985.93
2023-04-14T00:56:14.111Z,985.94
2023-04-14T00:56:24.627Z,985.94
2023-04-14T00:56:35.136Z,985.94
2023-04-14T00:56:45.638Z,985.94
2023-04-14T00:56:56.143Z,985.95
2023-04-14T00:57:06.663Z,985.94
2023-04-14T00:57:17.178Z,985.95
2023-04-14T00:57:27.680Z,985.95
2023-04-14T00:57:38.172Z,985.95
2023-04-14T00:57:48.693Z,985.95
2023-04-14T00:57:59.198Z,985.95
2023-04-14T00:58:09.705Z,985.95
2023-04-14T00:58:20.208Z,985.95
2023-04-14T00:58:30.718Z,985.95
2023-04-14T00:58:41.236Z,985.95
2023-04-14T00:58:51.735Z,985.95
2023-04-14T00:59:02.531Z,985.95
2023-04-14T00:59:12.753Z,985.95
2023-04-14T00:59:23.252Z,985.95
2023-04-14T00:59:33.779Z,985.96
2023-04-14T00:59:44.268Z,985.96
2023-04-14T00:59:54.788Z,985.96
2023-04-14T01:00:05.286Z,985.96
2023-04-14T01:00:15.886Z,985.96
2023-04-14T01:00:26.312Z,985.96
2023-04-14T01:00:36.796Z,985.96
2023-04-14T01:00:47.300Z,985.96
2023-04-14T01:00:57.825Z,985.96
2023-04-14T01:01:08.318Z,985.96
2023-04-14T01:01:18.846Z,985.97
2023-04-14T01:01:29.338Z,985.97
2023-04-14T01:01:39.850Z,985.97
2023-04-14T01:01:50.511Z,985.97
2023-04-14T01:02:00.954Z,985.97
2023-04-14T01:02:11.439Z,985.97
2023-04-14T01:02:22.143Z,985.97
2023-04-14T01:02:32.578Z,985.97
2023-04-14T01:02:43.063Z,985.97
2023-04-14T01:02:53.501Z,985.97
2023-04-14T01:03:04.160Z,985.97
2023-04-14T01:03:14.614Z,985.97
2023-04-14T01:03:25.209Z,985.97
2023-04-14T01:03:35.581Z,985.96
2023-04-14T01:03:46.143Z,985.97
2023-04-14T01:03:56.527Z,985.97
2023-04-14T01:04:07.025Z,985.96
2023-04-14T01:04:17.546Z,985.96
2023-04-14T01:04:37.011Z,985.96
2023-04-14T01:04:49.658Z,985.97
2023-04-14T01:04:54.155Z,985.96
2023-04-14T01:04:59.601Z,985.96
2023-04-14T01:05:10.062Z,985.96
2023-04-14T01:05:20.633Z,985.96
2023-04-14T01:05:31.046Z,985.96
2023-04-14T01:05:41.499Z,985.96
2023-04-14T01:05:52.010Z,985.96
2023-04-14T01:06:02.552Z,985.96
2023-04-14T01:06:13.016Z,985.96
2023-04-14T01:06:23.523Z,985.96
2023-04-14T01:06:34.025Z,985.96
2023-04-14T01:06:44.543Z,985.96
2023-04-14T01:06:55.044Z,985.96
2023-04-14T01:07:05.547Z,985.96
2023-04-14T01:07:16.054Z,985.96
2023-04-14T01:07:26.563Z,985.95
2023-04-14T01:07:37.067Z,985.95
2023-04-14T01:07:47.578Z,985.95
2023-04-14T01:07:58.113Z,985.95
2023-04-14T01:08:08.599Z,985.96
2023-04-14T01:08:19.111Z,985.96
2023-04-14T01:08:29.622Z,985.96
2023-04-14T01:08:40.126Z,985.96
2023-04-14T01:08:50.634Z,985.96
2023-04-14T01:09:01.326Z,985.96
2023-04-14T01:09:11.654Z,985.96
2023-04-14T01:09:22.164Z,985.96
2023-04-14T01:09:32.688Z,985.96
2023-04-14T01:09:43.171Z,985.96
2023-04-14T01:09:53.684Z,985.96
2023-04-14T01:10:04.205Z,985.95
2023-04-14T01:10:14.713Z,985.95
2023-04-14T01:10:25.199Z,985.96
2023-04-14T01:10:35.704Z,985.96
2023-04-14T01:10:46.209Z,985.96
2023-04-14T01:10:56.750Z,985.96
2023-04-14T01:11:07.224Z,985.96
2023-04-14T01:11:17.741Z,985.96
2023-04-14T01:11:28.264Z,985.96
2023-04-14T01:11:38.752Z,985.96
2023-04-14T01:11:49.250Z,985.96
2023-04-14T01:11:59.764Z,985.96
2023-04-14T01:12:10.290Z,985.96
2023-04-14T01:12:20.783Z,985.96
2023-04-14T01:12:31.284Z,985.97
2023-04-14T01:12:41.800Z,985.96
2023-04-14T01:12:52.296Z,985.97
2023-04-14T01:13:02.814Z,985.97
2023-04-14T01:13:13.384Z,985.97
2023-04-14T01:13:23.828Z,985.97
2023-04-14T01:13:34.343Z,985.98
2023-04-14T01:13:44.849Z,985.97
2023-04-14T01:13:55.352Z,985.97
2023-04-14T01:14:05.870Z,985.98
2023-04-14T01:14:16.365Z,985.98
2023-04-14T01:14:26.882Z,985.98
2023-04-14T01:14:37.378Z,985.98
2023-04-14T01:14:47.887Z,985.98
2023-04-14T01:14:58.398Z,985.98
2023-04-14T01:15:08.905Z,985.99
2023-04-14T01:15:19.425Z,985.99
2023-04-14T01:15:29.922Z,985.99
2023-04-14T01:15:40.462Z,985.99
2023-04-14T01:15:50.954Z,986.00
2023-04-14T01:16:01.477Z,986.00
2023-04-14T01:16:12.066Z,985.99
2023-04-14T01:16:22.455Z,986.00
2023-04-14T01:16:32.998Z,986.00
2023-04-14T01:16:43.460Z,986.00
2023-04-14T01:16:53.977Z,986.00
2023-04-14T01:17:04.478Z,986.00
2023-04-14T01:17:14.989Z,986.00
2023-04-14T01:17:25.577Z,986.00
2023-04-14T01:17:36.044Z,986.00
2023-04-14T01:17:46.580Z,986.01
2023-04-14T01:17:57.065Z,986.00
2023-04-14T01:18:07.539Z,986.01
2023-04-14T01:18:18.035Z,986.01
2023-04-14T01:18:28.550Z,986.01
2023-04-14T01:18:39.042Z,986.01
2023-04-14T01:18:49.551Z,986.01
2023-04-14T01:19:00.281Z,986.01
2023-04-14T01:19:10.570Z,986.01
2023-04-14T01:19:21.082Z,986.01
2023-04-14T01:19:31.572Z,986.01
2023-04-14T01:19:42.086Z,986.01
2023-04-14T01:19:52.596Z,986.01
2023-04-14T01:20:03.102Z,986.01
2023-04-14T01:20:13.606Z,986.01
2023-04-14T01:20:24.124Z,986.01
2023-04-14T01:20:34.628Z,986.01
2023-04-14T01:20:45.138Z,986.01
2023-04-14T01:20:55.641Z,986.01
2023-04-14T01:21:06.140Z,986.01
2023-04-14T01:21:16.653Z,986.01
2023-04-14T01:21:27.158Z,986.01
2023-04-14T01:21:37.694Z,986.02
2023-04-14T01:21:48.181Z,986.02
2023-04-14T01:21:58.698Z,986.02
2023-04-14T01:22:09.204Z,986.02
2023-04-14T01:22:19.700Z,986.02
2023-04-14T01:22:30.217Z,986.02
2023-04-14T01:22:40.737Z,986.02
2023-04-14T01:22:51.230Z,986.03
2023-04-14T01:23:01.736Z,986.03
2023-04-14T01:23:12.251Z,986.02
2023-04-14T01:23:22.782Z,986.03
2023-04-14T01:23:33.291Z,986.02
2023-04-14T01:23:43.773Z,986.03
2023-04-14T01:23:54.284Z,986.02
2023-04-14T01:24:04.794Z,986.02
2023-04-14T01:24:15.329Z,986.03
2023-04-14T01:24:25.817Z,986.03
2023-04-14T01:24:36.358Z,986.03
2023-04-14T01:24:46.833Z,986.03
2023-04-14T01:24:57.336Z,986.03
2023-04-14T01:25:07.849Z,986.03
2023-04-14T01:25:18.363Z,986.03
2023-04-14T01:25:28.862Z,986.03
2023-04-14T01:25:39.379Z,986.03
2023-04-14T01:25:49.891Z,986.03
2023-04-14T01:26:00.400Z,986.03
2023-04-14T01:26:10.900Z,986.03
2023-04-14T01:26:21.434Z,986.03
2023-04-14T01:26:31.923Z,986.03
2023-04-14T01:26:42.421Z,986.03
2023-04-14T01:26:52.930Z,986.03
2023-04-14T01:27:03.449Z,986.03
2023-04-14T01:27:13.946Z,986.03
2023-04-14T01:27:24.485Z,986.03
2023-04-14T01:27:34.958Z,986.03
2023-04-14T01:27:45.488Z,986.03
2023-04-14T01:27:55.990Z,986.03
2023-04-14T01:28:06.542Z,986.03
2023-04-14T01:28:16.989Z,986.03
2023-04-14T01:28:27.515Z,986.04
2023-04-14T01:28:38.005Z,986.04
2023-04-14T01:28:48.513Z,986.04
2023-04-14T01:28:59.459Z,986.04
2023-04-14T01:29:09.568Z,986.04
2023-04-14T01:29:20.040Z,986.05
2023-04-14T01:29:30.545Z,986.05
2023-04-14T01:29:41.048Z,986.05
2023-04-14T01:29:51.755Z,986.05
2023-04-14T01:30:02.070Z,986.05
2023-04-14T01:30:12.565Z,986.06
2023-04-14T01:30:23.066Z,986.06
2023-04-14T01:30:33.579Z,986.06
2023-04-14T01:30:44.104Z,986.06
2023-04-14T01:30:54.605Z,986.06
2023-04-14T01:31:05.163Z,986.07
2023-04-14T01:31:15.621Z,986.07
2023-04-14T01:31:26.139Z,986.07
2023-04-14T01:31:36.668Z,986.07
2023-04-14T01:31:47.168Z,986.07
2023-04-14T01:31:57.739Z,986.08
2023-04-14T01:32:08.129Z,986.08
2023-04-14T01:32:18.639Z,986.08
2023-04-14T01:32:29.176Z,986.08
2023-04-14T01:32:39.709Z,986.09
2023-04-14T01:32:50.228Z,986.09
2023-04-14T01:33:00.683Z,986.09
2023-04-14T01:33:11.178Z,986.09
2023-04-14T01:33:21.687Z,986.09
2023-04-14T01:33:32.193Z,986.09
2023-04-14T01:33:42.706Z,986.10
2023-04-14T01:33:53.212Z,986.10
2023-04-14T01:34:03.730Z,986.10
2023-04-14T01:34:14.228Z,986.10
2023-04-14T01:34:24.740Z,986.10
2023-04-14T01:34:35.261Z,986.10
2023-04-14T01:34:45.756Z,986.10
2023-04-14T01:34:56.296Z,986.10
2023-04-14T01:35:06.772Z,986.10
2023-04-14T01:35:17.269Z,986.10
2023-04-14T01:35:27.779Z,986.10
2023-04-14T01:35:38.310Z,986.10
2023-04-14T01:35:48.805Z,986.10
2023-04-14T01:35:59.298Z,986.10
2023-04-14T01:36:09.822Z,986.10
2023-04-14T01:36:20.314Z,986.10
2023-04-14T01:36:30.823Z,986.10
2023-04-14T01:36:41.342Z,986.09
2023-04-14T01:36:51.841Z,986.10
2023-04-14T01:37:02.368Z,986.10
2023-04-14T01:37:12.898Z,986.10
2023-04-14T01:37:23.371Z,986.09
2023-04-14T01:37:33.872Z,986.09
2023-04-14T01:37:44.387Z,986.09
2023-04-14T01:37:54.880Z,986.09
2023-04-14T01:38:05.384Z,986.09
2023-04-14T01:38:15.900Z,986.09
2023-04-14T01:38:26.410Z,986.09
2023-04-14T01:38:36.908Z,986.09
2023-04-14T01:38:47.424Z,986.09
2023-04-14T01:38:58.154Z,986.09
2023-04-14T01:39:08.439Z,986.09
2023-04-14T01:39:18.943Z,986.09
2023-04-14T01:39:29.456Z,986.09
2023-04-14T01:39:39.984Z,986.09
2023-04-14T01:39:50.471Z,986.09
2023-04-14T01:40:00.972Z,986.09
2023-04-14T01:40:11.507Z,986.09
2023-04-14T01:40:21.988Z,986.09
2023-04-14T01:40:32.488Z,986.09
2023-04-14T01:40:42.999Z,986.10
2023-04-14T01:40:53.507Z,986.09
2023-04-14T01:41:04.022Z,986.09
2023-04-14T01:41:14.515Z,986.10
2023-04-14T01:41:25.024Z,986.09
2023-04-14T01:41:35.531Z,986.10
2023-04-14T01:41:46.066Z,986.09
2023-04-14T01:41:56.552Z,986.10
2023-04-14T01:42:07.056Z,986.10
2023-04-14T01:42:17.563Z,986.10
2023-04-14T01:42:28.070Z,986.11
2023-04-14T01:42:38.585Z,986.11
2023-04-14T01:42:49.164Z,986.11
2023-04-14T01:43:00.045Z,986.11
2023-04-14T01:43:10.094Z,986.11
2023-04-14T01:43:20.597Z,986.11
2023-04-14T01:43:31.106Z,986.11
2023-04-14T01:43:41.607Z,986.11
2023-04-14T01:43:52.121Z,986.12
2023-04-14T01:44:02.623Z,986.12
2023-04-14T01:44:13.128Z,986.12
2023-04-14T01:44:23.649Z,986.12
2023-04-14T01:44:34.153Z,986.12
2023-04-14T01:44:44.684Z,986.12
2023-04-14T01:44:55.164Z,986.12
2023-04-14T01:45:05.659Z,986.12
2023-04-14T01:45:16.173Z,986.12
2023-04-14T01:45:26.734Z,986.12
2023-04-14T01:45:37.197Z,986.12
2023-04-14T01:45:47.730Z,986.12
2023-04-14T01:45:58.235Z,986.12
2023-04-14T01:46:08.718Z,986.12
2023-04-14T01:46:19.296Z,986.12
2023-04-14T01:46:29.711Z,986.12
2023-04-14T01:46:40.222Z,986.12
2023-04-14T01:46:50.731Z,986.12
2023-04-14T01:47:01.254Z,986.12
2023-04-14T01:47:11.729Z,986.12
2023-04-14T01:47:22.265Z,986.12
2023-04-14T01:47:32.768Z,986.12
2023-04-14T01:47:43.274Z,986.12
2023-04-14T01:47:53.781Z,986.12
2023-04-14T01:48:04.346Z,986.12
2023-04-14T01:48:14.755Z,986.12
2023-04-14T01:48:25.279Z,986.12
2023-04-14T01:48:35.766Z,986.12
2023-04-14T01:48:46.283Z,986.12
2023-04-14T01:48:56.840Z,986.12
2023-04-14T01:49:07.314Z,986.13
2023-04-14T01:49:17.871Z,986.13
2023-04-14T01:49:28.345Z,986.13
2023-04-14T01:49:38.877Z,986.13
2023-04-14T01:49:49.401Z,986.13
2023-04-14T01:49:59.818Z,986.13
2023-04-14T01:50:10.323Z,986.13
2023-04-14T01:50:20.832Z,986.13
2023-04-14T01:50:31.344Z,986.13
2023-04-14T01:50:41.840Z,986.12
2023-04-14T01:50:52.344Z,986.13
2023-04-14T01:51:02.856Z,986.13
2023-04-14T01:51:13.368Z,986.13
2023-04-14T01:51:23.868Z,986.13
2023-04-14T01:51:34.375Z,986.13
2023-04-14T01:51:44.891Z,986.12
2023-04-14T01:51:55.408Z,986.12
2023-04-14T01:52:05.895Z,986.12
2023-04-14T01:52:16.411Z,986.12
2023-04-14T01:52:26.920Z,986.12
2023-04-14T01:52:37.418Z,986.12
2023-04-14T01:52:47.946Z,986.12
2023-04-14T01:52:58.428Z,986.12
2023-04-14T01:53:08.957Z,986.12
2023-04-14T01:53:19.569Z,986.12
2023-04-14T01:53:29.949Z,986.12
2023-04-14T01:53:40.475Z,986.11
2023-04-14T01:53:50.995Z,986.11
2023-04-14T01:54:01.482Z,986.11
2023-04-14T01:54:11.992Z,986.11
2023-04-14T01:54:22.486Z,986.11
2023-04-14T01:54:32.998Z,986.11
2023-04-14T01:54:43.531Z,986.11
2023-04-14T01:54:54.024Z,986.11
2023-04-14T01:55:04.523Z,986.11
2023-04-14T01:55:15.040Z,986.11
2023-04-14T01:55:25.541Z,986.11
2023-04-14T01:55:36.049Z,986.11
2023-04-14T01:55:46.552Z,986.12
2023-04-14T01:55:57.063Z,986.12
2023-04-14T01:56:07.573Z,986.12
2023-04-14T01:56:18.078Z,986.12
2023-04-14T01:56:28.584Z,986.12
2023-04-14T01:56:39.107Z,986.12
2023-04-14T01:56:49.593Z,986.12
2023-04-14T01:57:00.106Z,986.13
2023-04-14T01:57:10.613Z,986.13
2023-04-14T01:57:21.110Z,986.13
2023-04-14T01:57:31.634Z,986.14
2023-04-14T01:57:42.136Z,986.14
2023-04-14T01:57:52.639Z,986.14
2023-04-14T01:58:03.142Z,986.14
2023-04-14T01:58:13.651Z,986.15
2023-04-14T01:58:24.188Z,986.15
2023-04-14T01:58:34.676Z,986.15
2023-04-14T01:58:45.164Z,986.15
2023-04-14T01:58:55.674Z,986.15
2023-04-14T01:59:06.198Z,986.16
2023-04-14T01:59:16.689Z,986.16
2023-04-14T01:59:27.195Z,986.16
2023-04-14T01:59:37.705Z,986.16
2023-04-14T01:59:48.213Z,986.16
2023-04-14T01:59:58.719Z,986.16
2023-04-14T02:00:09.236Z,986.16
2023-04-14T02:00:19.740Z,986.16
2023-04-14T02:00:30.231Z,986.16
2023-04-14T02:00:40.774Z,986.17
2023-04-14T02:00:51.280Z,986.17
2023-04-14T02:01:01.774Z,986.17
2023-04-14T02:01:12.321Z,986.17
2023-04-14T02:01:22.800Z,986.17
2023-04-14T02:01:33.401Z,986.17
2023-04-14T02:01:43.830Z,986.17
2023-04-14T02:01:54.327Z,986.17
2023-04-14T02:02:04.826Z,986.18
2023-04-14T02:02:15.361Z,986.18
2023-04-14T02:02:25.960Z,986.18
2023-04-14T02:02:36.492Z,986.18
2023-04-14T02:02:47.045Z,986.18
2023-04-14T02:02:57.451Z,986.18
2023-04-14T02:03:07.930Z,986.19
2023-04-14T02:03:18.489Z,986.18
2023-04-14T02:03:28.913Z,986.19
2023-04-14T02:03:39.485Z,986.19
2023-04-14T02:03:49.912Z,986.19
2023-04-14T02:04:00.521Z,986.19
2023-04-14T02:04:10.937Z,986.19
2023-04-14T02:04:21.437Z,986.19
2023-04-14T02:04:31.918Z,986.19
2023-04-14T02:04:42.419Z,986.19
2023-04-14T02:04:52.930Z,986.19
2023-04-14T02:05:03.432Z,986.19
2023-04-14T02:05:13.945Z,986.20
2023-04-14T02:05:24.458Z,986.20
2023-04-14T02:05:34.963Z,986.20
2023-04-14T02:05:45.468Z,986.19
2023-04-14T02:05:56.013Z,986.19
2023-04-14T02:06:06.503Z,986.20
2023-04-14T02:06:17.142Z,986.20
2023-04-14T02:06:27.531Z,986.20
2023-04-14T02:06:38.009Z,986.20
2023-04-14T02:06:48.522Z,986.19
2023-04-14T02:06:59.021Z,986.20
2023-04-14T02:07:09.533Z,986.20
2023-04-14T02:07:20.040Z,986.20
2023-04-14T02:07:30.547Z,986.20
2023-04-14T02:07:41.063Z,986.20
2023-04-14T02:07:51.620Z,986.20
2023-04-14T02:08:02.078Z,986.21
2023-04-14T02:08:12.598Z,986.21
2023-04-14T02:08:23.095Z,986.21
2023-04-14T02:08:33.616Z,986.21
2023-04-14T02:08:44.182Z,986.21
2023-04-14T02:08:54.609Z,986.21
2023-04-14T02:09:05.117Z,986.22
2023-04-14T02:09:15.626Z,986.22
2023-04-14T02:09:26.140Z,986.22
2023-04-14T02:09:36.635Z,986.22
2023-04-14T02:09:47.159Z,986.23
2023-04-14T02:09:57.654Z,986.23
2023-04-14T02:10:08.160Z,986.23
2023-04-14T02:10:18.664Z,986.24
2023-04-14T02:10:29.164Z,986.24
2023-04-14T02:10:39.676Z,986.24
2023-04-14T02:10:50.173Z,986.25
2023-04-14T02:11:00.678Z,986.25